Time;durP1;ratioP1;P1;durP2;ratioP2;P2;SDS_P1;SDS_P2;PMS_P1;PMS_P2;Temp;Humidity;BMP_temperature;BMP_pressure;BME280_temperature;BME280_humidity;BME280_pressure;Samples;Min_cycle;Max_cycle;Signal;HPM_P1;HPM_P2
2023/06/23 00:00:25;;;;;;;9.25;8.27;;;;;;;18.72;76.27;100858.63;15793713;28;20046;-44
2023/06/23 00:07:58;;;;;;;9.77;7.65;;;;;;;18.29;77.97;100839.53;15788019;28;20373;-54
2023/06/23 00:15:32;;;;;;;;;;;;;;;18.16;78.51;100817.41;15793317;28;20113;-44
2023/06/23 00:23:05;;;;;;;11.80;7.10;;;;;;;18.46;77.80;100823.06;15773994;28;19935;-46
2023/06/23 00:30:40;;;;;;;10.73;7.53;;;;;;;18.68;76.52;100844.72;15792417;28;20076;-47
2023/06/23 00:38:13;;;;;;;13.38;11.73;;;;;;;18.57;77.20;100911.78;15772702;28;20123;-43
2023/06/23 00:45:49;;;;;;;15.32;13.85;;;;;;;18.49;78.57;100946.78;15791897;28;20040;-50
2023/06/23 00:53:22;;;;;;;10.65;7.88;;;;;;;18.93;77.10;100900.38;15785635;28;20079;-46
2023/06/23 01:00:57;;;;;;;11.48;7.97;;;;;;;18.95;77.04;100849.25;15769178;28;20052;-45
2023/06/23 01:08:34;;;;;;;11.13;6.95;;;;;;;18.04;80.47;100793.13;15784861;28;20076;-50
2023/06/23 01:16:13;;;;;;;11.52;9.52;;;;;;;17.78;81.68;100790.19;15802332;28;20051;-47
2023/06/23 01:24:05;;;;;;;13.20;9.77;;;;;;;18.02;81.43;100803.44;15784521;28;20340;-45
2023/06/23 01:31:47;;;;;;;15.50;12.93;;;;;;;18.50;79.16;100799.72;15784418;28;20519;-45
2023/06/23 01:39:23;;;;;;;13.18;11.18;;;;;;;18.39;79.36;100768.13;15801960;28;20050;-50
2023/06/23 01:47:03;;;;;;;13.23;10.68;;;;;;;17.91;80.99;100753.66;15766789;28;20357;-47
2023/06/23 01:54:40;;;;;;;13.48;12.05;;;;;;;17.95;81.38;100752.06;15782826;28;20044;-49
2023/06/23 02:02:19;;;;;;;14.52;11.38;;;;;;;17.76;81.92;100748.88;15799931;28;20052;-46
2023/06/23 02:09:54;;;;;;;17.67;15.65;;;;;;;18.60;79.41;100760.91;15800318;28;20079;-47
2023/06/23 02:17:29;;;;;;;15.25;12.15;;;;;;;17.96;81.22;100740.09;15765373;28;20044;-45
2023/06/23 02:25:02;;;;;;;17.85;16.13;;;;;;;19.04;77.71;100739.69;15781053;28;20146;-48
2023/06/23 02:32:36;;;;;;;21.90;20.02;;;;;;;19.21;77.14;100711.41;15780146;28;20066;-45
2023/06/23 02:40:16;;;;;;;17.85;15.93;;;;;;;17.91;81.51;100668.66;15762789;28;20041;-47
2023/06/23 02:47:55;;;;;;;21.90;19.75;;;;;;;18.39;80.28;100683.06;15762150;28;20194;-49
2023/06/23 02:55:29;;;;;;;19.65;17.98;;;;;;;17.79;82.35;100685.91;15778870;28;20472;-45
2023/06/23 03:03:10;;;;;;;28.40;26.13;;;;;;;18.38;80.21;100714.06;15796453;28;20481;-47
2023/06/23 03:10:43;;;;;;;34.28;31.55;;;;;;;18.58;79.20;100763.09;15760172;28;20044;-48
2023/06/23 03:18:25;;;;;;;36.72;34.00;;;;;;;17.78;82.50;100745.91;15777740;28;20039;-51
2023/06/23 03:26:01;;;;;;;37.47;34.67;;;;;;;18.24;81.03;100765.31;15776842;28;20416;-46
2023/06/23 03:33:39;;;;;;;38.28;35.55;;;;;;;18.31;79.49;100760.47;15732303;22;20513;-50
2023/06/23 03:41:13;;;;;;;36.15;33.28;;;;;;;17.90;81.59;100775.59;15692811;28;20504;-50
2023/06/23 03:48:52;;;;;;;61.00;57.08;;;;;;;18.34;79.88;100785.22;15701978;28;20052;-49
2023/06/23 03:56:29;;;;;;;64.55;60.45;;;;;;;19.02;76.90;100811.75;15719202;28;20036;-52
2023/06/23 04:04:07;;;;;;;62.75;58.67;;;;;;;18.98;77.09;100833.25;15702607;28;20102;-52
2023/06/23 04:11:46;;;;;;;75.97;70.93;;;;;;;18.98;77.50;100843.28;15728626;28;20493;-50
2023/06/23 04:19:26;;;;;;;66.68;62.47;;;;;;;18.92;77.65;100844.34;15711694;28;20044;-52
2023/06/23 04:27:00;;;;;;;80.65;75.43;;;;;;;19.16;77.21;100853.72;15735666;28;20048;-50
2023/06/23 04:34:34;;;;;;;70.93;66.05;;;;;;;19.10;77.58;100852.88;15717126;28;20118;-49
2023/06/23 04:42:11;;;;;;;75.85;71.07;;;;;;;19.08;78.37;100849.63;15734806;28;20464;-49
2023/06/23 04:49:49;;;;;;;87.05;81.72;;;;;;;18.98;78.17;100865.88;15717770;28;20516;-50
2023/06/23 04:57:28;;;;;;;82.22;76.82;;;;;;;18.68;79.26;100871.91;15735145;28;20057;-51
2023/06/23 05:05:04;;;;;;;80.30;75.13;;;;;;;18.79;79.05;100865.50;15713694;28;20113;-50
2023/06/23 05:12:41;;;;;;;91.95;86.18;;;;;;;18.96;78.48;100868.03;15713744;28;20479;-52
2023/06/23 05:20:19;;;;;;;59.22;55.30;;;;;;;18.49;80.21;100862.50;15734386;28;20049;-51
2023/06/23 05:27:57;;;;;;;71.78;67.18;;;;;;;18.41;80.78;100877.38;15717924;28;20036;-51
2023/06/23 05:35:33;;;;;;;61.80;57.20;;;;;;;18.54;80.65;100870.69;15742143;28;20041;-53
2023/06/23 05:43:06;;;;;;;88.53;82.85;;;;;;;18.53;80.58;100878.03;15741353;28;20142;-49
2023/06/23 05:50:43;;;;;;;85.57;79.97;;;;;;;18.19;82.16;100849.50;15722290;28;20070;-51
2023/06/23 05:58:19;;;;;;;118.03;110.72;;;;;;;18.25;82.25;100864.75;15718745;28;20063;-52
2023/06/23 06:05:56;;;;;;;130.85;122.72;;;;;;;18.24;82.96;100858.50;15740828;28;20135;-50
2023/06/23 06:13:34;;;;;;;114.40;107.03;;;;;;;18.33;82.80;100859.69;15723573;28;20032;-49
2023/06/23 06:21:09;;;;;;;155.15;145.48;;;;;;;18.08;83.32;100873.00;15742938;28;20040;-52
2023/06/23 06:28:45;;;;;;;304.52;285.65;;;;;;;18.26;83.50;100875.34;15723748;28;20032;-53
2023/06/23 06:36:22;;;;;;;328.45;308.48;;;;;;;18.29;82.54;100874.03;15742254;28;20074;-53
2023/06/23 06:43:57;;;;;;;278.13;260.92;;;;;;;18.55;81.77;100869.63;15740451;28;20061;-50
2023/06/23 06:51:33;;;;;;;295.35;277.35;;;;;;;18.99;80.13;100881.13;15704415;28;20047;-50
2023/06/23 06:59:06;;;;;;;339.65;318.90;;;;;;;19.01;79.23;100894.44;15697712;28;20041;-52
2023/06/23 07:06:41;;;;;;;372.95;350.45;;;;;;;18.65;81.45;100894.16;15701145;28;20044;-52
2023/06/23 07:14:14;;;;;;;378.10;354.88;;;;;;;18.15;83.78;100889.13;15718061;28;20036;-52
2023/06/23 07:21:48;;;;;;;378.48;354.50;;;;;;;18.60;82.38;100889.53;15718331;28;20110;-52
2023/06/23 07:29:21;;;;;;;351.05;328.83;;;;;;;18.32;83.50;100890.63;15719175;28;20136;-54
2023/06/23 07:36:55;;;;;;;363.23;340.35;;;;;;;18.43;83.20;100901.59;15736164;28;20059;-55
2023/06/23 07:44:28;;;;;;;371.20;348.33;;;;;;;19.11;80.84;100897.22;15717503;28;20090;-51
2023/06/23 07:52:04;;;;;;;;;;;;;;;18.92;81.41;100896.03;15708286;28;20045;-53
2023/06/23 07:59:37;;;;;;;544.53;507.92;;;;;;;18.86;82.23;100906.06;15732239;28;20273;-51
2023/06/23 08:07:11;;;;;;;532.40;497.05;;;;;;;18.86;82.42;100904.16;15733895;28;20048;-53
2023/06/23 08:14:44;;;;;;;545.15;508.73;;;;;;;18.91;81.58;100924.31;15710327;28;20382;-56
2023/06/23 08:22:18;;;;;;;549.00;512.97;;;;;;;18.47;82.63;100927.19;15700292;28;20052;-56
2023/06/23 08:29:51;;;;;;;575.05;535.90;;;;;;;18.76;81.67;100928.56;15701713;28;20118;-51
2023/06/23 08:37:25;;;;;;;575.00;535.35;;;;;;;18.56;82.02;100942.78;15695330;28;20102;-52
2023/06/23 08:45:02;;;;;;;600.53;558.67;;;;;;;18.64;82.86;100952.34;15713584;28;20081;-52
2023/06/23 08:52:37;;;;;;;582.58;543.33;;;;;;;18.75;82.65;100967.72;15691023;28;20041;-52
2023/06/23 09:00:11;;;;;;;590.40;550.67;;;;;;;18.70;82.09;100980.41;15709739;28;20055;-54
2023/06/23 09:07:45;;;;;;;609.25;567.95;;;;;;;18.71;81.86;100984.81;15727360;28;20363;-58
2023/06/23 09:15:23;;;;;;;612.80;570.22;;;;;;;18.33;82.47;100983.88;15738000;28;20041;-54
2023/06/23 09:22:58;;;;;;;620.78;578.45;;;;;;;18.30;82.51;100978.94;15738111;28;20136;-55
2023/06/23 09:30:35;;;;;;;642.50;598.38;;;;;;;18.23;82.91;100995.44;15704751;28;20046;-52
2023/06/23 09:38:11;;;;;;;601.20;559.95;;;;;;;18.14;83.22;100993.41;15708678;28;20045;-56
2023/06/23 09:45:45;;;;;;;602.97;560.65;;;;;;;18.66;81.79;101003.75;15747155;28;20049;-51
2023/06/23 09:53:21;;;;;;;600.75;560.10;;;;;;;18.70;81.60;101005.75;15745071;28;20045;-51
2023/06/23 10:01:00;;;;;;;597.95;557.00;;;;;;;18.83;81.70;101001.75;15715612;28;20400;-50
2023/06/23 10:08:39;;;;;;;627.60;584.25;;;;;;;18.71;81.25;101018.25;15720553;28;20044;-52
2023/06/23 10:16:20;;;;;;;605.10;562.55;;;;;;;18.91;80.60;101024.94;15694006;28;20106;-50
2023/06/23 10:23:58;;;;;;;668.38;620.53;;;;;;;18.46;81.12;101043.22;15698963;28;20525;-54
2023/06/23 10:31:35;;;;;;;649.03;603.05;;;;;;;18.46;80.92;101062.25;15736723;28;20041;-52
2023/06/23 10:39:11;;;;;;;672.40;624.20;;;;;;;18.30;82.01;101064.00;15734435;28;20047;-51
2023/06/23 10:46:45;;;;;;;609.42;566.35;;;;;;;18.15;82.53;101073.88;15719839;28;20058;-55
2023/06/23 10:54:29;;;;;;;563.58;525.30;;;;;;;18.53;81.93;101057.47;15716456;28;20052;-53
2023/06/23 11:02:18;;;;;;;576.60;537.60;;;;;;;18.32;82.23;101069.16;15737657;28;20041;-53
2023/06/23 11:10:03;;;;;;;618.78;575.35;;;;;;;18.47;81.83;101090.28;15731564;28;20041;-52
2023/06/23 11:17:40;;;;;;;746.35;690.78;;;;;;;18.53;80.82;101095.53;15712602;28;20079;-54
2023/06/23 11:25:27;;;;;;;730.58;675.13;;;;;;;19.00;79.43;101102.28;15735116;28;20044;-56
2023/06/23 11:33:27;;;;;;;702.83;650.58;;;;;;;18.66;80.68;101113.34;15734149;28;20037;-52
2023/06/23 11:41:02;;;;;;;741.72;685.85;;;;;;;18.72;80.36;101122.41;15712277;28;20052;-54
2023/06/23 11:48:37;;;;;;;725.97;670.20;;;;;;;18.81;80.15;101138.00;15732158;28;20028;-53
2023/06/23 11:56:15;;;;;;;712.60;659.10;;;;;;;18.99;79.54;101150.44;15731341;28;20124;-53
2023/06/23 12:03:49;;;;;;;735.95;680.45;;;;;;;18.65;80.59;101155.19;15733858;28;20037;-50
2023/06/23 12:11:23;;;;;;;696.53;645.40;;;;;;;18.51;81.74;101151.19;15728245;28;20408;-53
2023/06/23 12:19:00;;;;;;;726.28;672.30;;;;;;;18.61;81.07;101170.38;15732392;28;20047;-54
2023/06/23 12:26:34;;;;;;;728.58;673.88;;;;;;;18.83;80.31;101175.81;15731718;28;20037;-52
2023/06/23 12:34:13;;;;;;;755.28;697.90;;;;;;;18.95;80.34;101186.59;15714032;28;20493;-55
2023/06/23 12:41:50;;;;;;;750.53;693.75;;;;;;;19.24;78.71;101193.41;15729442;28;20059;-53
2023/06/23 12:49:31;;;;;;;883.10;809.53;;;;;;;17.99;79.68;101173.31;15723775;28;20060;-53
2023/06/23 12:57:05;;;;;;;860.92;787.85;;;;;;;17.69;80.87;101217.09;15707345;28;20139;-54
2023/06/23 13:04:38;;;;;;;920.33;840.30;;;;;;;17.71;80.42;101223.09;15724777;28;20121;-54
2023/06/23 13:12:12;;;;;;;859.92;786.83;;;;;;;17.41;81.36;101243.22;15726033;28;20040;-51
2023/06/23 13:19:46;;;;;;;874.75;802.92;;;;;;;17.49;80.66;101255.56;15717678;28;20557;-53
2023/06/23 13:27:21;;;;;;;;;;;;;;;17.30;80.89;101269.34;15742079;28;20052;-55
2023/06/23 13:34:55;;;;;;;891.47;813.42;;;;;;;17.41;80.78;101288.53;15743894;28;19921;-53
2023/06/23 13:42:31;;;;;;;835.67;768.53;;;;;;;17.60;80.22;101306.25;15700034;28;20104;-52
2023/06/23 13:50:11;;;;;;;823.08;756.88;;;;;;;17.57;80.08;101318.41;15736623;28;20037;-52
2023/06/23 13:57:45;;;;;;;894.33;819.70;;;;;;;17.13;80.44;101321.88;15743062;28;20071;-53
2023/06/23 14:05:19;;;;;;;875.30;800.22;;;;;;;17.00;80.58;101344.66;15729866;28;20052;-53
2023/06/23 14:12:53;;;;;;;;;;;;;;;16.55;80.98;101348.78;15743676;28;20441;-53
2023/06/23 14:20:26;;;;;;;887.80;811.67;;;;;;;16.46;80.07;101365.59;15735454;28;20018;-56
2023/06/23 14:28:03;;;;;;;831.85;761.85;;;;;;;16.21;81.01;101388.28;15719713;28;20056;-54
2023/06/23 14:35:36;;;;;;;870.70;797.28;;;;;;;16.19;81.17;101385.00;15720615;28;20080;-54
2023/06/23 14:43:11;;;;;;;862.47;788.67;;;;;;;16.06;81.47;101402.25;15704027;28;20351;-56
2023/06/23 14:50:43;;;;;;;865.80;792.38;;;;;;;16.55;80.90;101410.25;15721028;28;20584;-56
2023/06/23 14:58:18;;;;;;;;;;;;;;;17.03;79.81;101425.56;15719381;28;20650;-55
2023/06/23 15:05:54;;;;;;;874.30;802.92;;;;;;;17.19;80.00;101424.81;15721382;28;20293;-54
2023/06/23 15:13:31;;;;;;;;;;;;;;;17.40;80.28;101434.25;15722680;28;20131;-53
2023/06/23 15:21:05;;;;;;;819.63;755.22;;;;;;;17.62;80.10;101447.16;15720466;28;20011;-55
2023/06/23 15:28:39;;;;;;;;;;;;;;;17.56;80.29;101457.09;15740641;28;20068;-52
2023/06/23 15:36:16;;;;;;;906.58;828.60;;;;;;;17.69;80.11;101480.44;15730914;22;20341;-52
2023/06/23 15:43:50;;;;;;;878.10;804.72;;;;;;;17.91;79.04;101486.94;15770919;28;20067;-47
2023/06/23 15:51:23;;;;;;;892.10;819.45;;;;;;;17.86;79.79;101486.81;15798109;28;20504;-46
2023/06/23 15:58:57;;;;;;;;;;;;;;;17.95;78.80;101495.41;15772809;28;20076;-47
2023/06/23 16:06:30;;;;;;;914.28;833.17;;;;;;;18.02;78.59;101507.78;15802604;28;20315;-47
2023/06/23 16:14:05;;;;;;;954.75;869.17;;;;;;;18.15;77.97;101509.41;15767863;28;20048;-50
2023/06/23 16:21:38;;;;;;;966.67;877.33;;;;;;;18.17;78.22;101518.13;15799254;28;20124;-51
2023/06/23 16:29:12;;;;;;;969.30;883.33;;;;;;;17.89;79.48;101523.53;15799791;28;20044;-53
2023/06/23 16:36:45;;;;;;;954.75;870.85;;;;;;;18.01;78.54;101524.34;15796073;28;20447;-47
2023/06/23 16:44:20;;;;;;;923.30;844.25;;;;;;;18.22;77.53;101536.44;15778262;28;20036;-48
2023/06/23 16:51:52;;;;;;;936.97;853.08;;;;;;;18.00;78.24;101536.25;15793256;28;20072;-50
2023/06/23 16:59:28;;;;;;;985.22;895.10;;;;;;;18.00;78.19;101525.38;15807685;28;20050;-48
2023/06/23 17:07:01;;;;;;;1012.83;917.45;;;;;;;18.10;76.95;101534.59;15780910;28;20180;-48
2023/06/23 17:14:35;;;;;;;;;;;;;;;18.22;76.63;101544.56;15804251;28;20068;-43
2023/06/23 17:22:09;;;;;;;933.33;850.00;;;;;;;18.09;77.77;101535.66;15779211;28;19920;-51
2023/06/23 17:29:44;;;;;;;945.40;862.70;;;;;;;18.36;77.40;101538.59;15799535;28;20052;-51
2023/06/23 17:37:16;;;;;;;915.20;840.13;;;;;;;18.23;78.91;101554.38;15787073;28;20044;-48
2023/06/23 17:44:50;;;;;;;;;;;;;;;18.42;78.17;101561.31;15787012;28;20415;-47
2023/06/23 17:52:24;;;;;;;942.00;859.33;;;;;;;18.34;78.86;101567.94;15766119;28;20395;-47
2023/06/23 17:59:59;;;;;;;889.05;813.08;;;;;;;18.52;78.69;101571.53;15815856;28;20036;-50
2023/06/23 18:07:32;;;;;;;870.35;799.50;;;;;;;18.43;78.73;101575.72;15807910;28;20079;-48
2023/06/23 18:15:08;;;;;;;860.85;790.13;;;;;;;18.17;79.67;101580.63;15792860;28;20044;-53
2023/06/23 18:22:42;;;;;;;850.35;781.53;;;;;;;18.74;77.70;101588.84;15786445;28;20481;-50
2023/06/23 18:30:16;;;;;;;;;;;;;;;18.65;77.58;101601.13;15787980;28;20067;-48
2023/06/23 18:37:49;;;;;;;828.90;762.40;;;;;;;18.66;77.42;101610.16;15784327;28;20014;-46
2023/06/23 18:45:25;;;;;;;901.70;824.50;;;;;;;18.39;77.81;101610.72;15802097;28;20048;-50
2023/06/23 18:52:58;;;;;;;937.58;856.75;;;;;;;18.58;76.96;101617.63;15798386;28;20052;-51
2023/06/23 19:00:33;;;;;;;;;;;;;;;18.32;77.93;101629.03;15795327;28;20052;-46
2023/06/23 19:08:05;;;;;;;910.28;831.45;;;;;;;18.55;77.57;101631.69;15785550;28;20388;-46
2023/06/23 19:15:41;;;;;;;901.42;825.03;;;;;;;18.43;77.23;101628.19;15807624;28;20225;-45
2023/06/23 19:23:15;;;;;;;908.83;829.47;;;;;;;18.24;77.60;101632.16;15782835;28;20302;-49
2023/06/23 19:30:49;;;;;;;891.75;813.67;;;;;;;18.31;77.64;101644.50;15802649;28;20101;-45
2023/06/23 19:38:23;;;;;;;882.53;807.15;;;;;;;18.17;77.29;101664.88;15798297;28;20056;-47
2023/06/23 19:45:57;;;;;;;929.30;849.92;;;;;;;18.49;77.10;101673.44;15797812;28;20530;-50
2023/06/23 19:53:30;;;;;;;907.33;828.85;;;;;;;18.36;76.80;101679.94;15794057;28;20040;-52
2023/06/23 20:01:04;;;;;;;;;;;;;;;18.36;77.05;101682.66;15809777;28;20104;-48
2023/06/23 20:08:37;;;;;;;890.25;810.38;;;;;;;18.24;77.77;101687.31;15759057;28;19941;-49
2023/06/23 20:16:11;;;;;;;905.38;828.67;;;;;;;18.04;78.30;101689.56;15805184;28;20075;-48
2023/06/23 20:23:44;;;;;;;892.10;816.05;;;;;;;18.06;78.10;101692.88;15762642;28;20076;-48
2023/06/23 20:31:19;;;;;;;;;;;;;;;18.12;78.26;101704.69;15764658;28;20130;-52
2023/06/23 20:38:52;;;;;;;877.72;804.05;;;;;;;18.18;77.74;101703.72;15777003;28;20035;-46
2023/06/23 20:46:27;;;;;;;885.92;812.70;;;;;;;18.41;77.02;101713.75;15777019;28;20040;-45
2023/06/23 20:53:59;;;;;;;877.53;805.97;;;;;;;18.57;76.16;101722.00;15775383;28;20063;-47
2023/06/23 21:01:33;;;;;;;875.08;803.50;;;;;;;18.45;76.89;101723.09;15804363;28;20052;-48
2023/06/23 21:09:07;;;;;;;899.13;823.35;;;;;;;18.46;76.71;101728.28;15776669;28;20071;-51
2023/06/23 21:16:43;;;;;;;888.78;813.38;;;;;;;18.37;76.72;101721.56;15794951;28;20055;-49
2023/06/23 21:24:16;;;;;;;860.83;789.92;;;;;;;18.34;77.05;101713.91;15793116;28;20522;-51
2023/06/23 21:31:50;;;;;;;886.67;811.53;;;;;;;18.18;78.30;101722.75;15789921;28;20040;-52
2023/06/23 21:39:23;;;;;;;850.15;779.55;;;;;;;17.84;79.60;101720.63;15807928;28;20124;-54
2023/06/23 21:46:58;;;;;;;920.95;841.67;;;;;;;18.09;78.04;101719.56;15784439;28;20524;-55
2023/06/23 21:54:31;;;;;;;885.03;809.45;;;;;;;17.58;78.51;101729.19;15794442;28;20039;-50
2023/06/23 22:02:07;;;;;;;949.38;863.95;;;;;;;18.05;77.11;101729.28;15802436;28;20051;-55
2023/06/23 22:09:40;;;;;;;936.53;855.35;;;;;;;17.83;77.72;101735.25;15789779;28;20039;-52
2023/06/23 22:17:17;;;;;;;921.97;841.47;;;;;;;17.54;78.61;101739.66;15804997;28;20151;-54
2023/06/23 22:24:49;;;;;;;932.13;851.75;;;;;;;17.38;78.98;101747.63;15787795;28;20043;-52
2023/06/23 22:32:24;;;;;;;904.40;824.72;;;;;;;17.64;78.57;101739.09;15803173;28;20046;-50
2023/06/23 22:39:57;;;;;;;908.45;829.05;;;;;;;17.55;78.93;101740.50;15803268;28;20048;-52
2023/06/23 22:47:34;;;;;;;898.40;822.58;;;;;;;17.77;78.61;101741.63;15781522;28;20130;-59
2023/06/23 22:55:08;;;;;;;896.85;821.00;;;;;;;17.75;78.40;101749.19;15780849;28;20036;-52
2023/06/23 23:02:42;;;;;;;856.58;787.30;;;;;;;17.82;78.61;101759.94;15803911;28;20040;-51
2023/06/23 23:10:20;;;;;;;814.45;750.65;;;;;;;17.74;80.18;101768.44;15804719;28;20055;-55
2023/06/23 23:17:54;;;;;;;815.63;750.40;;;;;;;18.04;79.21;101771.88;15801979;28;20048;-51
2023/06/23 23:25:28;;;;;;;799.00;737.65;;;;;;;17.93;80.51;101772.72;15805392;28;20044;-49
2023/06/23 23:33:03;;;;;;;827.25;762.28;;;;;;;18.41;77.75;101774.38;15797917;28;20062;-53
2023/06/23 23:40:36;;;;;;;855.40;786.95;;;;;;;18.48;77.15;101775.09;15800785;28;20480;-54
2023/06/23 23:48:11;;;;;;;852.63;785.03;;;;;;;18.48;76.52;101774.28;15777927;28;20503;-52
2023/06/23 23:55:44;;;;;;;887.10;812.95;;;;;;;18.35;76.18;101781.59;15777077;28;20131;-53
